createdAt,value
2019-04-07T00:00:36.329Z,10.80
2019-04-07T00:01:36.677Z,10.83
2019-04-07T00:02:36.286Z,10.81
2019-04-07T00:03:37.288Z,10.78
2019-04-07T00:04:36.336Z,10.78
2019-04-07T00:05:36.292Z,10.73
2019-04-07T00:06:36.214Z,10.78
2019-04-07T00:07:36.249Z,10.84
2019-04-07T00:08:36.602Z,10.71
2019-04-07T00:09:36.491Z,10.78
2019-04-07T00:10:36.766Z,10.86
2019-04-07T00:11:36.288Z,10.73
2019-04-07T00:12:36.071Z,10.80
2019-04-07T00:13:36.486Z,10.84
2019-04-07T00:14:36.103Z,10.81
2019-04-07T00:15:36.061Z,10.88
2019-04-07T00:16:35.913Z,10.88
2019-04-07T00:17:36.219Z,10.92
2019-04-07T00:18:35.863Z,10.96
2019-04-07T00:19:35.895Z,10.95
2019-04-07T00:20:36.345Z,10.96
2019-04-07T00:21:35.784Z,11.02
2019-04-07T00:22:35.754Z,11.06
2019-04-07T00:23:35.817Z,11.03
2019-04-07T00:24:35.703Z,11.06
2019-04-07T00:25:36.288Z,11.01
2019-04-07T00:26:35.855Z,11.10
2019-04-07T00:27:35.624Z,11.09
2019-04-07T00:28:35.601Z,11.17
2019-04-07T00:29:35.654Z,11.09
2019-04-07T00:30:36.142Z,11.13
2019-04-07T00:31:35.563Z,11.14
2019-04-07T00:32:35.567Z,11.14
2019-04-07T00:33:35.602Z,11.25
2019-04-07T00:34:35.879Z,11.28
2019-04-07T00:35:35.487Z,11.25
2019-04-07T00:36:35.402Z,11.20
2019-04-07T00:37:36.235Z,11.29
2019-04-07T00:38:35.922Z,11.27
2019-04-07T00:39:35.513Z,11.19
2019-04-07T00:40:35.883Z,11.28
2019-04-07T00:41:35.365Z,11.20
2019-04-07T00:42:35.357Z,11.32
2019-04-07T00:43:35.228Z,11.31
2019-04-07T00:44:35.301Z,11.38
2019-04-07T00:45:35.411Z,11.31
2019-04-07T00:46:35.542Z,11.34
2019-04-07T00:47:35.160Z,11.39
2019-04-07T00:48:35.085Z,11.39
2019-04-07T00:49:35.065Z,11.31
2019-04-07T00:50:35.125Z,11.39
2019-04-07T00:51:35.466Z,11.43
2019-04-07T00:52:35.021Z,11.36
2019-04-07T00:53:35.322Z,11.39
2019-04-07T00:54:34.940Z,11.36
2019-04-07T00:55:34.920Z,11.49
2019-04-07T00:56:34.995Z,11.52
2019-04-07T00:57:35.377Z,11.46
2019-04-07T00:58:34.907Z,11.46
2019-04-07T00:59:35.193Z,11.50
2019-04-07T01:00:34.798Z,11.46
2019-04-07T01:01:35.049Z,11.49
2019-04-07T01:02:34.846Z,11.44
2019-04-07T01:03:34.939Z,11.47
2019-04-07T01:04:36.423Z,11.44
2019-04-07T01:05:38.552Z,11.49
2019-04-07T01:06:34.634Z,11.52
2019-04-07T01:07:34.653Z,11.47
2019-04-07T01:08:34.583Z,11.47
2019-04-07T01:09:35.244Z,11.39
2019-04-07T01:10:34.822Z,11.47
2019-04-07T01:11:34.573Z,11.44
2019-04-07T01:12:34.658Z,11.49
2019-04-07T01:13:34.487Z,11.41
2019-04-07T01:14:34.422Z,11.46
2019-04-07T01:15:35.180Z,11.46
2019-04-07T01:16:34.373Z,11.52
2019-04-07T01:17:34.502Z,11.47
2019-04-07T01:18:35.470Z,11.44
2019-04-07T01:19:34.411Z,11.52
2019-04-07T01:20:34.335Z,11.50
2019-04-07T01:21:34.599Z,11.52
2019-04-07T01:22:34.691Z,11.46
2019-04-07T01:23:34.763Z,11.49
2019-04-07T01:24:34.254Z,11.47
2019-04-07T01:25:34.571Z,11.47
2019-04-07T01:26:34.163Z,11.50
2019-04-07T01:27:34.625Z,11.53
2019-04-07T01:28:34.064Z,11.47
2019-04-07T01:29:34.188Z,11.50
2019-04-07T01:30:34.829Z,11.46
2019-04-07T01:31:34.179Z,11.47
2019-04-07T01:32:34.607Z,11.44
2019-04-07T01:33:33.973Z,11.47
2019-04-07T01:34:34.082Z,11.59
2019-04-07T01:35:44.428Z,11.56
2019-04-07T01:36:33.873Z,11.59
2019-04-07T01:37:34.076Z,11.56
2019-04-07T01:38:33.819Z,11.53
2019-04-07T01:39:33.799Z,11.49
2019-04-07T01:40:33.819Z,11.49
2019-04-07T01:41:34.050Z,11.52
2019-04-07T01:42:33.716Z,11.61
2019-04-07T01:43:33.941Z,11.49
2019-04-07T01:44:33.654Z,11.61
2019-04-07T01:45:33.646Z,11.52
2019-04-07T01:46:33.895Z,11.46
2019-04-07T01:47:34.276Z,11.61
2019-04-07T01:48:33.584Z,11.53
2019-04-07T01:49:33.857Z,11.52
2019-04-07T01:50:33.907Z,11.54
2019-04-07T01:51:33.489Z,11.57
2019-04-07T01:52:33.709Z,11.56
2019-04-07T01:53:33.434Z,11.46
2019-04-07T01:54:33.515Z,11.44
2019-04-07T01:55:33.543Z,11.57
2019-04-07T01:56:33.773Z,11.53
2019-04-07T01:57:33.877Z,11.57
2019-04-07T01:58:33.928Z,11.56
2019-04-07T01:59:33.341Z,11.53
2019-04-07T02:00:33.777Z,11.47
2019-04-07T02:01:33.824Z,11.49
2019-04-07T02:02:33.322Z,11.54
2019-04-07T02:03:33.262Z,11.56
2019-04-07T02:04:33.559Z,11.61
2019-04-07T02:05:33.183Z,11.50
2019-04-07T02:06:33.281Z,11.61
2019-04-07T02:07:33.751Z,11.47
2019-04-07T02:08:33.121Z,11.59
2019-04-07T02:09:33.641Z,11.57
2019-04-07T02:10:33.106Z,11.56
2019-04-07T02:11:32.974Z,11.57
2019-04-07T02:12:33.422Z,11.59
2019-04-07T02:13:32.957Z,11.53
2019-04-07T02:14:32.932Z,11.56
2019-04-07T02:15:32.872Z,11.59
2019-04-07T02:16:32.942Z,11.56
2019-04-07T02:17:32.832Z,11.53
2019-04-07T02:18:32.964Z,11.56
2019-04-07T02:19:32.820Z,11.61
2019-04-07T02:20:33.337Z,11.56
2019-04-07T02:21:32.768Z,11.62
2019-04-07T02:22:32.790Z,11.57
2019-04-07T02:23:32.742Z,11.56
2019-04-07T02:24:32.641Z,11.53
2019-04-07T02:25:32.708Z,11.57
2019-04-07T02:26:33.155Z,11.53
2019-04-07T02:27:32.633Z,11.49
2019-04-07T02:28:32.995Z,11.50
2019-04-07T02:29:32.518Z,11.53
2019-04-07T02:30:33.149Z,11.57
2019-04-07T02:31:32.534Z,11.53
2019-04-07T02:32:32.436Z,11.43
2019-04-07T02:33:33.112Z,11.47
2019-04-07T02:34:32.388Z,11.44
2019-04-07T02:35:32.375Z,11.46
2019-04-07T02:36:32.363Z,11.50
2019-04-07T02:37:33.282Z,11.50
2019-04-07T02:38:32.361Z,11.39
2019-04-07T02:39:32.675Z,11.39
2019-04-07T02:40:33.041Z,11.34
2019-04-07T02:41:32.490Z,11.43
2019-04-07T02:42:32.323Z,11.43
2019-04-07T02:43:32.735Z,11.31
2019-04-07T02:44:32.199Z,11.34
2019-04-07T02:45:32.351Z,11.34
2019-04-07T02:46:32.076Z,11.24
2019-04-07T02:47:32.159Z,11.35
2019-04-07T02:48:32.290Z,11.21
2019-04-07T02:49:32.476Z,11.19
2019-04-07T02:50:32.021Z,11.20
2019-04-07T02:51:32.160Z,11.27
2019-04-07T02:52:32.013Z,11.21
2019-04-07T02:53:32.807Z,11.27
2019-04-07T02:54:31.965Z,11.21
2019-04-07T02:55:31.854Z,11.24
2019-04-07T02:56:32.525Z,11.16
2019-04-07T02:57:31.986Z,11.11
2019-04-07T02:58:32.711Z,11.19
2019-04-07T02:59:31.772Z,11.11
2019-04-07T03:00:31.856Z,11.07
2019-04-07T03:01:32.717Z,11.11
2019-04-07T03:02:31.823Z,11.09
2019-04-07T03:03:31.647Z,11.09
2019-04-07T03:04:31.703Z,11.11
2019-04-07T03:05:31.602Z,11.10
2019-04-07T03:06:39.389Z,11.01
2019-04-07T03:07:32.487Z,11.02
2019-04-07T03:08:32.262Z,11.02
2019-04-07T03:09:32.269Z,11.02
2019-04-07T03:10:31.553Z,10.99
2019-04-07T03:11:31.516Z,11.06
2019-04-07T03:12:31.735Z,11.02
2019-04-07T03:13:31.651Z,10.95
2019-04-07T03:14:31.611Z,10.92
2019-04-07T03:15:32.386Z,11.07
2019-04-07T03:16:31.303Z,10.88
2019-04-07T03:17:31.709Z,10.94
2019-04-07T03:18:31.642Z,10.95
2019-04-07T03:19:31.848Z,10.95
2019-04-07T03:20:31.243Z,10.95
2019-04-07T03:21:31.218Z,10.95
2019-04-07T03:22:31.162Z,10.91
2019-04-07T03:23:31.688Z,10.89
2019-04-07T03:24:31.108Z,10.84
2019-04-07T03:25:31.085Z,10.81
2019-04-07T03:26:31.249Z,10.70
2019-04-07T03:27:31.408Z,10.65
2019-04-07T03:28:31.002Z,10.71
2019-04-07T03:29:31.216Z,10.65
2019-04-07T03:30:32.899Z,10.66
2019-04-07T03:31:38.978Z,10.65
2019-04-07T03:33:39.457Z,10.51
2019-04-07T03:34:36.324Z,10.44
2019-04-07T03:35:35.560Z,10.46
2019-04-07T03:37:02.874Z,10.53
2019-04-07T03:37:42.601Z,10.42
2019-04-07T03:38:35.305Z,10.40
2019-04-07T03:39:34.765Z,10.44
2019-04-07T03:40:35.540Z,10.44
2019-04-07T03:41:34.927Z,10.43
2019-04-07T03:42:34.713Z,10.44
2019-04-07T03:43:34.922Z,10.46
2019-04-07T03:44:34.633Z,10.46
2019-04-07T03:45:34.614Z,10.42
2019-04-07T03:46:34.775Z,10.46
2019-04-07T03:47:35.183Z,10.33
2019-04-07T03:48:35.342Z,10.42
2019-04-07T03:49:35.125Z,10.42
2019-04-07T03:50:34.707Z,10.46
2019-04-07T03:51:34.554Z,10.37
2019-04-07T03:52:35.371Z,10.37
2019-04-07T03:53:34.395Z,10.32
2019-04-07T03:54:34.468Z,10.32
2019-04-07T03:55:35.185Z,10.30
2019-04-07T03:56:34.417Z,10.33
2019-04-07T03:57:34.310Z,10.30
2019-04-07T03:58:34.403Z,10.19
2019-04-07T03:59:35.161Z,10.22
2019-04-07T04:00:34.305Z,10.12
2019-04-07T04:01:35.378Z,10.19
2019-04-07T04:02:34.516Z,10.17
2019-04-07T04:03:34.342Z,10.15
2019-04-07T04:04:34.308Z,10.17
2019-04-07T04:05:34.215Z,10.10
2019-04-07T04:06:34.258Z,10.10
2019-04-07T04:07:36.947Z,10.21
2019-04-07T04:08:34.913Z,10.24
2019-04-07T04:09:37.109Z,10.22
2019-04-07T04:10:34.423Z,10.24
2019-04-07T04:11:34.261Z,10.17
2019-04-07T04:12:34.202Z,10.18
2019-04-07T04:13:34.339Z,10.09
2019-04-07T04:14:34.740Z,10.12
2019-04-07T04:15:33.825Z,10.09
2019-04-07T04:16:34.116Z,10.10
2019-04-07T04:17:34.528Z,10.10
2019-04-07T04:18:33.798Z,10.06
2019-04-07T04:19:33.737Z,10.00
2019-04-07T04:20:34.552Z,10.06
2019-04-07T04:21:33.665Z,10.01
2019-04-07T04:22:33.712Z,9.94
2019-04-07T04:23:33.727Z,10.06
2019-04-07T04:24:33.799Z,10.09
2019-04-07T04:25:34.097Z,10.01
2019-04-07T04:26:34.325Z,10.17
2019-04-07T04:27:35.015Z,10.07
2019-04-07T04:28:33.544Z,10.14
2019-04-07T04:29:33.454Z,10.04
2019-04-07T04:30:34.008Z,10.01
2019-04-07T04:31:33.766Z,10.04
2019-04-07T04:32:33.372Z,10.01
2019-04-07T04:33:33.373Z,9.86
2019-04-07T04:34:33.335Z,9.88
2019-04-07T04:35:33.997Z,9.93
2019-04-07T04:36:33.541Z,9.89
2019-04-07T04:37:42.013Z,9.85
2019-04-07T04:38:33.708Z,9.93
2019-04-07T04:39:33.520Z,9.91
2019-04-07T04:40:33.199Z,9.88
2019-04-07T04:41:33.223Z,9.86
2019-04-07T04:42:33.946Z,9.75
2019-04-07T04:43:33.762Z,9.79
2019-04-07T04:44:33.135Z,9.76
2019-04-07T04:45:33.809Z,9.78
2019-04-07T04:46:33.055Z,9.75
2019-04-07T04:47:33.003Z,9.83
2019-04-07T04:48:32.956Z,9.76
2019-04-07T04:49:33.201Z,9.78
2019-04-07T04:50:32.973Z,9.76
2019-04-07T04:51:36.935Z,9.76
2019-04-07T04:52:33.035Z,9.76
2019-04-07T04:53:32.840Z,9.73
2019-04-07T04:54:33.383Z,9.81
2019-04-07T04:55:32.783Z,9.75
2019-04-07T04:56:32.893Z,9.82
2019-04-07T04:57:32.725Z,9.71
2019-04-07T04:58:32.721Z,9.82
2019-04-07T04:59:33.302Z,9.71
2019-04-07T05:00:32.729Z,9.75
2019-04-07T05:01:33.114Z,9.75
2019-04-07T05:02:32.682Z,9.75
2019-04-07T05:03:32.857Z,9.64
2019-04-07T05:04:32.795Z,9.64
2019-04-07T05:05:32.808Z,9.63
2019-04-07T05:06:33.182Z,9.71
2019-04-07T05:07:32.569Z,9.82
2019-04-07T05:08:32.455Z,9.78
2019-04-07T05:09:41.871Z,9.78
2019-04-07T05:10:32.373Z,9.79
2019-04-07T05:11:32.787Z,9.75
2019-04-07T05:12:32.322Z,9.75
2019-04-07T05:13:32.974Z,9.75
2019-04-07T05:14:32.263Z,9.75
2019-04-07T05:15:32.660Z,9.70
2019-04-07T05:16:32.315Z,9.71
2019-04-07T05:17:32.370Z,9.70
2019-04-07T05:18:32.420Z,9.76
2019-04-07T05:19:32.302Z,9.67
2019-04-07T05:20:32.132Z,9.75
2019-04-07T05:21:32.083Z,9.73
2019-04-07T05:22:32.124Z,9.75
2019-04-07T05:23:32.623Z,9.73
2019-04-07T05:24:32.224Z,9.70
2019-04-07T05:25:32.716Z,9.68
2019-04-07T05:26:31.954Z,9.76
2019-04-07T05:27:31.924Z,9.67
2019-04-07T05:28:34.789Z,9.75
2019-04-07T05:29:32.447Z,9.75
2019-04-07T05:30:32.476Z,9.76
2019-04-07T05:31:32.077Z,9.64
2019-04-07T05:32:32.184Z,9.64
2019-04-07T05:33:32.037Z,9.64
2019-04-07T05:34:32.179Z,9.64
2019-04-07T05:35:31.712Z,9.63
2019-04-07T05:36:32.453Z,9.63
2019-04-07T05:37:31.961Z,9.66
2019-04-07T05:38:31.758Z,9.68
2019-04-07T05:39:31.750Z,9.76
2019-04-07T05:40:31.964Z,9.78
2019-04-07T05:41:31.554Z,9.76
2019-04-07T05:42:32.170Z,9.81
2019-04-07T05:43:31.575Z,9.79
2019-04-07T05:44:32.189Z,9.78
2019-04-07T05:45:31.578Z,9.91
2019-04-07T05:46:31.423Z,9.85
2019-04-07T05:47:31.536Z,9.82
2019-04-07T05:48:31.675Z,9.93
2019-04-07T05:49:31.455Z,9.85
2019-04-07T05:50:31.856Z,9.86
2019-04-07T05:51:31.399Z,9.89
2019-04-07T05:52:33.480Z,9.93
2019-04-07T05:53:31.334Z,9.89
2019-04-07T05:54:31.201Z,9.91
2019-04-07T05:55:31.270Z,9.88
2019-04-07T05:56:31.618Z,9.85
2019-04-07T05:57:33.562Z,9.85
2019-04-07T05:58:31.103Z,9.88
2019-04-07T05:59:31.886Z,10.06
2019-04-07T06:00:31.181Z,10.06
2019-04-07T06:01:31.302Z,9.99
2019-04-07T06:02:32.512Z,10.15
2019-04-07T06:03:30.962Z,10.04
2019-04-07T06:04:31.482Z,10.14
2019-04-07T06:05:30.926Z,10.14
2019-04-07T06:06:31.653Z,10.22
2019-04-07T06:07:31.921Z,10.25
2019-04-07T06:08:37.697Z,10.19
2019-04-07T06:09:33.676Z,10.21
2019-04-07T06:10:30.932Z,10.28
2019-04-07T06:11:33.145Z,10.33
2019-04-07T06:12:30.737Z,10.34
2019-04-07T06:13:31.274Z,10.33
2019-04-07T06:14:30.683Z,10.28
2019-04-07T06:15:31.258Z,10.33
2019-04-07T06:16:30.625Z,10.42
2019-04-07T06:17:31.412Z,10.34
2019-04-07T06:18:33.853Z,10.47
2019-04-07T06:19:30.580Z,10.47
2019-04-07T06:20:31.190Z,10.59
2019-04-07T06:21:31.175Z,10.60
2019-04-07T06:22:30.575Z,10.56
2019-04-07T06:23:30.884Z,10.62
2019-04-07T06:24:33.327Z,10.68
2019-04-07T06:25:36.884Z,10.76
2019-04-07T06:26:31.164Z,10.66
2019-04-07T06:27:30.636Z,10.76
2019-04-07T06:28:30.305Z,10.78
2019-04-07T06:29:30.312Z,10.84
2019-04-07T06:30:32.003Z,10.86
2019-04-07T06:31:32.817Z,10.84
2019-04-07T06:32:30.214Z,10.88
2019-04-07T06:33:30.519Z,10.88
2019-04-07T06:34:30.151Z,10.88
2019-04-07T06:35:31.437Z,10.98
2019-04-07T06:36:30.797Z,11.01
2019-04-07T06:37:30.806Z,11.02
2019-04-07T06:38:34.254Z,11.19
2019-04-07T06:39:31.980Z,11.21
2019-04-07T06:40:30.570Z,11.28
2019-04-07T06:41:31.431Z,11.29
2019-04-07T06:42:32.412Z,11.38
2019-04-07T06:43:30.265Z,11.34
2019-04-07T06:44:30.126Z,11.39
2019-04-07T06:45:30.427Z,11.49
2019-04-07T06:46:30.544Z,11.46
2019-04-07T06:47:32.003Z,11.52
2019-04-07T06:48:30.489Z,11.61
2019-04-07T06:49:29.824Z,11.52
2019-04-07T06:50:29.738Z,11.57
2019-04-07T06:51:31.091Z,11.57
2019-04-07T06:52:30.277Z,11.65
2019-04-07T06:53:30.184Z,11.71
2019-04-07T06:54:29.878Z,11.75
2019-04-07T06:55:31.558Z,11.67
2019-04-07T06:56:32.221Z,11.70
2019-04-07T06:57:29.918Z,11.80
2019-04-07T06:58:29.911Z,11.77
2019-04-07T06:59:29.506Z,11.83
2019-04-07T07:00:30.054Z,11.83
2019-04-07T07:01:29.691Z,11.87
2019-04-07T07:02:31.641Z,11.87
2019-04-07T07:03:33.580Z,11.96
2019-04-07T07:04:30.017Z,11.99
2019-04-07T07:05:30.053Z,12.08
2019-04-07T07:06:29.483Z,11.99
2019-04-07T07:07:29.303Z,12.09
2019-04-07T07:08:30.073Z,12.15
2019-04-07T07:09:29.354Z,12.16
2019-04-07T07:10:32.553Z,12.12
2019-04-07T07:11:31.666Z,12.16
2019-04-07T07:12:34.983Z,12.19
2019-04-07T07:13:33.477Z,12.15
2019-04-07T07:14:35.458Z,12.29
2019-04-07T07:15:33.106Z,12.31
2019-04-07T07:16:29.937Z,12.37
2019-04-07T07:17:29.042Z,12.44
2019-04-07T07:18:29.469Z,12.30
2019-04-07T07:19:29.318Z,12.34
2019-04-07T07:20:30.202Z,12.41
2019-04-07T07:21:29.582Z,12.44
2019-04-07T07:22:29.019Z,12.45
2019-04-07T07:23:28.897Z,12.44
2019-04-07T07:24:29.555Z,12.54
2019-04-07T07:25:31.276Z,12.59
2019-04-07T07:26:32.962Z,12.64
2019-04-07T07:27:29.153Z,12.57
2019-04-07T07:28:28.855Z,12.62
2019-04-07T07:29:28.899Z,12.70
2019-04-07T07:30:29.877Z,12.75
2019-04-07T07:31:29.231Z,12.79
2019-04-07T07:32:29.163Z,12.78
2019-04-07T07:33:29.232Z,12.95
2019-04-07T07:34:29.424Z,12.87
2019-04-07T07:35:28.779Z,12.89
2019-04-07T07:36:28.564Z,12.95
2019-04-07T07:37:29.008Z,12.99
2019-04-07T07:38:31.641Z,13.07
2019-04-07T07:39:29.492Z,13.07
2019-04-07T07:40:28.461Z,13.12
2019-04-07T07:41:29.059Z,13.14
2019-04-07T07:42:28.905Z,13.22
2019-04-07T07:43:29.549Z,13.11
2019-04-07T07:44:28.938Z,13.37
2019-04-07T07:45:28.441Z,13.37
2019-04-07T07:46:28.900Z,13.44
2019-04-07T07:47:28.303Z,13.47
2019-04-07T07:48:28.495Z,13.51
2019-04-07T07:49:33.484Z,13.55
2019-04-07T07:50:28.483Z,13.58
2019-04-07T07:51:28.188Z,13.55
2019-04-07T07:52:28.734Z,13.59
2019-04-07T07:53:28.582Z,13.65
2019-04-07T07:54:29.895Z,13.67
2019-04-07T07:55:30.639Z,13.62
2019-04-07T07:56:28.244Z,13.80
2019-04-07T07:57:28.114Z,13.74
2019-04-07T07:58:31.698Z,13.81
2019-04-07T07:59:31.691Z,13.89
2019-04-07T08:00:27.987Z,13.81
2019-04-07T08:01:28.024Z,13.91
2019-04-07T08:02:29.799Z,13.94
2019-04-07T08:03:28.121Z,14.13
2019-04-07T08:04:27.961Z,14.12
2019-04-07T08:05:32.297Z,14.17
2019-04-07T08:06:27.873Z,14.09
2019-04-07T08:07:28.730Z,14.19
2019-04-07T08:08:27.785Z,14.24
2019-04-07T08:09:28.322Z,14.21
2019-04-07T08:10:27.815Z,14.28
2019-04-07T08:11:30.832Z,14.38
2019-04-07T08:12:28.140Z,14.34
2019-04-07T08:13:27.662Z,14.47
2019-04-07T08:14:28.314Z,14.46
2019-04-07T08:15:31.949Z,14.65
2019-04-07T08:16:31.068Z,14.57
2019-04-07T08:17:27.749Z,14.67
2019-04-07T08:18:27.542Z,14.69
2019-04-07T08:19:29.667Z,14.81
2019-04-07T08:20:27.513Z,14.86
2019-04-07T08:21:28.057Z,14.90
2019-04-07T08:22:33.844Z,14.93
2019-04-07T08:23:27.414Z,14.91
2019-04-07T08:24:28.126Z,14.94
2019-04-07T08:25:28.060Z,14.93
2019-04-07T08:26:27.857Z,15.03
2019-04-07T08:27:31.204Z,15.12
2019-04-07T08:28:27.421Z,15.08
2019-04-07T08:29:27.985Z,15.19
2019-04-07T08:30:27.331Z,15.20
2019-04-07T08:31:27.222Z,15.21
2019-04-07T08:32:30.824Z,15.30
2019-04-07T08:33:29.550Z,15.30
2019-04-07T08:34:30.541Z,15.27
2019-04-07T08:35:27.535Z,15.42
2019-04-07T08:36:27.695Z,15.41
2019-04-07T08:37:27.081Z,15.45
2019-04-07T08:38:28.329Z,15.39
2019-04-07T08:39:32.323Z,15.45
2019-04-07T08:40:27.430Z,15.51
2019-04-07T08:41:27.762Z,15.63
2019-04-07T08:42:27.901Z,15.64
2019-04-07T08:43:27.635Z,15.76
2019-04-07T08:44:29.391Z,15.84
2019-04-07T08:45:30.018Z,15.85
2019-04-07T08:46:29.971Z,15.92
2019-04-07T08:47:26.944Z,15.92
2019-04-07T08:48:26.861Z,15.99
2019-04-07T08:49:27.621Z,16.09
2019-04-07T08:50:28.498Z,16.11
2019-04-07T08:51:27.417Z,16.22
2019-04-07T08:52:27.146Z,16.27
2019-04-07T08:53:26.880Z,16.31
2019-04-07T08:54:27.555Z,16.40
2019-04-07T08:55:26.790Z,16.37
2019-04-07T08:56:27.727Z,16.41
2019-04-07T08:57:29.283Z,16.59
2019-04-07T08:58:28.986Z,16.59
2019-04-07T08:59:27.046Z,16.52
2019-04-07T09:00:27.149Z,16.60
2019-04-07T09:01:28.811Z,16.67
2019-04-07T09:02:29.319Z,16.74
2019-04-07T09:03:26.483Z,16.85
2019-04-07T09:04:26.662Z,16.95
2019-04-07T09:05:29.103Z,16.98
2019-04-07T09:06:28.485Z,17.00
2019-04-07T09:07:26.616Z,17.06
2019-04-07T09:08:26.523Z,17.13
2019-04-07T09:09:34.062Z,17.28
2019-04-07T09:10:26.320Z,17.23
2019-04-07T09:11:27.066Z,17.36
2019-04-07T09:12:28.904Z,17.47
2019-04-07T09:13:26.301Z,17.55
2019-04-07T09:14:26.231Z,17.62
2019-04-07T09:15:27.013Z,17.78
2019-04-07T09:16:26.191Z,17.94
2019-04-07T09:17:32.125Z,18.13
2019-04-07T09:18:26.561Z,18.22
2019-04-07T09:19:26.448Z,18.39
2019-04-07T09:20:26.769Z,18.67
2019-04-07T09:21:38.173Z,18.99
2019-04-07T09:22:26.051Z,19.24
2019-04-07T09:23:27.509Z,19.50
2019-04-07T09:24:29.794Z,19.65
2019-04-07T09:25:26.121Z,20.03
2019-04-07T09:26:26.110Z,20.46
2019-04-07T09:27:26.694Z,20.77
2019-04-07T09:28:26.468Z,21.08
2019-04-07T09:29:28.112Z,21.54
2019-04-07T09:30:26.231Z,21.81
2019-04-07T09:31:25.925Z,22.12
2019-04-07T09:32:33.408Z,22.22
2019-04-07T09:34:30.231Z,22.47
2019-04-07T09:35:29.870Z,22.53
2019-04-07T09:37:24.348Z,22.68
2019-04-07T09:38:24.934Z,22.83
2019-04-07T09:40:27.911Z,23.40
2019-04-07T09:41:28.600Z,23.39
2019-04-07T09:43:32.361Z,23.65
2019-04-07T09:44:36.035Z,23.85
2019-04-07T09:46:36.633Z,24.34
2019-04-07T09:47:36.934Z,24.69
2019-04-07T09:49:41.326Z,25.13
2019-04-07T09:50:40.802Z,25.28
2019-04-07T09:52:45.863Z,25.84
2019-04-07T09:53:44.844Z,26.05
2019-04-07T09:55:49.533Z,26.40
2019-04-07T09:56:49.670Z,26.35
2019-04-07T09:58:53.723Z,26.64
2019-04-07T09:59:54.634Z,26.68
2019-04-07T10:02:00.296Z,26.92
2019-04-07T10:02:57.741Z,26.96
2019-04-07T10:05:01.791Z,26.99
2019-04-07T10:06:01.759Z,26.80
2019-04-07T10:07:54.743Z,26.72
2019-04-07T10:08:55.320Z,26.74
2019-04-07T10:10:59.412Z,26.28
2019-04-07T10:11:58.730Z,26.04
2019-04-07T10:14:03.393Z,25.90
2019-04-07T10:15:02.803Z,25.68
2019-04-07T10:17:07.640Z,25.44
2019-04-07T10:18:07.723Z,25.44
2019-04-07T10:20:12.387Z,25.89
2019-04-07T10:21:11.601Z,26.17
2019-04-07T10:23:16.257Z,26.47
2019-04-07T10:24:16.912Z,26.57
2019-04-07T10:26:20.112Z,26.79
2019-04-07T10:27:20.473Z,26.84
2019-04-07T10:29:23.670Z,26.87
2019-04-07T10:30:24.315Z,26.80
2019-04-07T10:32:27.888Z,26.74
2019-04-07T10:33:27.674Z,26.98
2019-04-07T10:35:31.700Z,27.13
2019-04-07T10:36:31.902Z,27.17
2019-04-07T10:38:36.388Z,27.26
2019-04-07T10:39:35.722Z,27.24
2019-04-07T10:41:39.745Z,27.85
2019-04-07T10:42:40.193Z,28.22
2019-04-07T10:44:43.857Z,28.54
2019-04-07T10:45:43.919Z,28.62
2019-04-07T10:47:36.855Z,29.03
2019-04-07T10:48:36.830Z,29.13
2019-04-07T10:50:41.699Z,29.35
2019-04-07T10:51:42.044Z,29.33
2019-04-07T10:53:35.416Z,29.71
2019-04-07T10:54:34.682Z,29.86
2019-04-07T10:56:39.692Z,29.33
2019-04-07T10:57:39.501Z,28.78
2019-04-07T10:59:44.305Z,28.03
2019-04-07T11:00:46.513Z,27.88
2019-04-07T11:02:47.939Z,27.82
2019-04-07T11:03:47.529Z,28.01
2019-04-07T11:05:51.880Z,28.32
2019-04-07T11:06:51.759Z,28.59
2019-04-07T11:08:56.691Z,28.95
2019-04-07T11:09:56.484Z,28.80
2019-04-07T11:12:00.695Z,29.00
2019-04-07T11:13:00.724Z,29.25
2019-04-07T11:15:04.730Z,28.77
2019-04-07T11:16:05.044Z,28.72
2019-04-07T11:18:08.764Z,28.43
2019-04-07T11:19:08.927Z,28.06
2019-04-07T11:21:13.075Z,27.66
2019-04-07T11:22:12.540Z,27.66
2019-04-07T11:24:16.595Z,27.38
2019-04-07T11:25:16.569Z,27.26
2019-04-07T11:27:10.296Z,27.28
2019-04-07T11:28:09.531Z,27.29
2019-04-07T11:30:13.650Z,27.74
2019-04-07T11:31:13.631Z,28.09
2019-04-07T11:33:18.275Z,28.51
2019-04-07T11:34:17.650Z,28.60
2019-04-07T11:36:23.501Z,28.77
2019-04-07T11:37:21.759Z,28.56
2019-04-07T11:39:26.363Z,28.07
2019-04-07T11:40:25.881Z,28.07
2019-04-07T11:42:30.652Z,28.01
2019-04-07T11:43:30.504Z,27.94
2019-04-07T11:45:34.453Z,27.79
2019-04-07T11:46:34.067Z,27.85
2019-04-07T11:48:38.343Z,27.79
2019-04-07T11:49:40.808Z,27.48
2019-04-07T11:51:42.467Z,27.29
2019-04-07T11:52:42.054Z,27.23
2019-04-07T11:54:46.151Z,26.77
2019-04-07T11:55:46.483Z,27.01
2019-04-07T11:57:43.285Z,27.59
2019-04-07T11:58:39.724Z,27.77
2019-04-07T12:00:43.053Z,28.07
2019-04-07T12:01:46.007Z,28.21
2019-04-07T12:03:47.497Z,27.91
2019-04-07T12:04:47.759Z,27.59
2019-04-07T12:06:51.554Z,26.98
2019-04-07T12:07:55.814Z,26.65
2019-04-07T12:09:55.273Z,26.81
2019-04-07T12:11:01.777Z,27.14
2019-04-07T12:12:59.222Z,27.39
2019-04-07T12:13:59.772Z,27.42
2019-04-07T12:16:03.704Z,27.70
2019-04-07T12:17:06.938Z,27.71
2019-04-07T12:19:09.450Z,27.35
2019-04-07T12:20:08.223Z,27.24
2019-04-07T12:22:13.948Z,26.74
2019-04-07T12:23:15.902Z,26.61
2019-04-07T12:25:16.964Z,26.12
2019-04-07T12:26:16.059Z,25.94
2019-04-07T12:28:21.404Z,25.52
2019-04-07T12:29:20.781Z,25.27
2019-04-07T12:31:26.052Z,24.73
2019-04-07T12:32:26.031Z,24.63
2019-04-07T12:34:29.733Z,24.41
2019-04-07T12:35:29.621Z,24.31
2019-04-07T12:37:22.651Z,24.17
2019-04-07T12:38:22.938Z,24.05
2019-04-07T12:40:26.663Z,23.85
2019-04-07T12:41:27.715Z,23.80
2019-04-07T12:43:30.691Z,23.76
2019-04-07T12:44:30.605Z,23.76
2019-04-07T12:46:35.524Z,23.34
2019-04-07T12:47:35.544Z,23.29
2019-04-07T12:49:44.414Z,23.20
2019-04-07T12:50:40.273Z,23.24
2019-04-07T12:52:45.016Z,23.38
2019-04-07T12:53:44.395Z,23.40
2019-04-07T12:55:54.965Z,23.31
2019-04-07T12:56:48.883Z,23.27
2019-04-07T12:58:52.654Z,23.35
2019-04-07T12:59:52.910Z,23.23
2019-04-07T13:01:56.460Z,23.12
2019-04-07T13:02:56.321Z,23.22
2019-04-07T13:05:02.875Z,23.14
2019-04-07T13:06:00.643Z,23.19
2019-04-07T13:07:55.161Z,23.23
2019-04-07T13:08:56.011Z,23.20
2019-04-07T13:10:57.344Z,23.04
2019-04-07T13:11:57.289Z,22.87
2019-04-07T13:14:05.166Z,22.75
2019-04-07T13:15:02.308Z,22.74
2019-04-07T13:17:05.430Z,22.72
2019-04-07T13:18:07.378Z,22.65
2019-04-07T13:20:09.351Z,22.54
2019-04-07T13:21:10.063Z,22.52
2019-04-07T13:23:13.602Z,22.39
2019-04-07T13:24:22.054Z,22.47
2019-04-07T13:26:17.611Z,22.57
2019-04-07T13:27:17.372Z,22.50
2019-04-07T13:29:21.392Z,22.43
2019-04-07T13:30:21.448Z,22.35
2019-04-07T13:31:21.530Z,22.37
2019-04-07T13:32:21.869Z,22.29
2019-04-07T13:33:23.753Z,22.31
2019-04-07T13:34:21.340Z,22.31
2019-04-07T13:35:21.281Z,22.22
2019-04-07T13:36:21.455Z,22.13
2019-04-07T13:37:21.241Z,22.06
2019-04-07T13:38:22.016Z,22.09
2019-04-07T13:39:21.386Z,22.06
2019-04-07T13:40:21.751Z,22.04
2019-04-07T13:41:21.502Z,22.07
2019-04-07T13:42:24.864Z,22.01
2019-04-07T13:43:21.174Z,22.12
2019-04-07T13:44:21.802Z,22.20
2019-04-07T13:45:21.593Z,22.49
2019-04-07T13:46:27.623Z,22.78
2019-04-07T13:47:21.999Z,23.14
2019-04-07T13:48:21.122Z,23.60
2019-04-07T13:49:24.202Z,23.90
2019-04-07T13:50:21.023Z,23.92
2019-04-07T13:51:21.525Z,24.05
2019-04-07T13:52:22.149Z,23.94
2019-04-07T13:53:25.070Z,23.86
2019-04-07T13:54:21.167Z,23.92
2019-04-07T13:55:20.923Z,24.01
2019-04-07T13:56:21.091Z,23.86
2019-04-07T13:57:23.217Z,23.76
2019-04-07T13:58:21.794Z,23.71
2019-04-07T13:59:21.468Z,23.61
2019-04-07T14:00:21.656Z,23.57
2019-04-07T14:01:21.327Z,23.46
2019-04-07T14:02:24.763Z,23.40
2019-04-07T14:03:23.367Z,23.22
2019-04-07T14:04:21.740Z,23.07
2019-04-07T14:05:21.214Z,23.02
2019-04-07T14:06:22.129Z,22.86
2019-04-07T14:07:20.858Z,22.67
2019-04-07T14:08:22.326Z,22.65
2019-04-07T14:09:21.174Z,22.53
2019-04-07T14:10:21.223Z,22.49
2019-04-07T14:11:20.959Z,22.43
2019-04-07T14:12:20.666Z,22.38
2019-04-07T14:13:21.027Z,22.44
2019-04-07T14:14:21.135Z,22.37
2019-04-07T14:15:20.571Z,22.35
2019-04-07T14:16:21.218Z,22.35
2019-04-07T14:17:20.841Z,22.29
2019-04-07T14:18:21.220Z,22.17